Accueil
METAR-TAF:

METAR-TAF

Aéroports :

Aéroport de Friedrichshafen

Friedrichshafen, Allemagne

latitude: 47-40N, longitude: 009-31E, altitude: 416 m

Observation

Le bulletin a été fait il y a 20 minutes, à 02:50 UTC
Vent 4 kt de nord-est
Température 5°C
Humidité 75%
Pression 1026 hPa
Visibilité 10 km ou plus

METAR: EDNY 080250Z AUTO 04004KT 9999 // NCD 05/01 Q1026

Heure: 05:10 (03:10 UTC)

Prévision

Le bulletin a été fait il y a 4 heures et 10 minutes, à 23:00 UTC
Prévision valable du 08 à 00 UTC au 08 à 24 UTC
Vent 4 kt de nord-est
Visibilité 10 km ou plus
pas de nuages en-dessous de 1500 mètres et pas de cumulonimbus.
Evoluant progressivement
du 08 à 09 UTC au 08 à 11 UTC
Vent 5 kt de sud-ouest
Evoluant progressivement
du 08 à 16 UTC au 08 à 18 UTC
Vent 2 kt de direction variable

TAF: EDNY 072300Z 0800/0824 05004KT CAVOK BECMG 0809/0811 23005KT BECMG 0816/0818 VRB02KT

Observations et prévisions météorologiques de plus de 4000 aéroports (messages METAR et TAF).

Les stations disponibles sont représentées par des disques jaunes et rouges sur la carte.

Passer la souris dessus pour voir le nom de la station.

Cliquer dessus pour voir les observations et prévisions météorologiques.

Pour changer de carte: cliquez sur les boutons verts avec une croix noire pour zoomer, sur le bouton vert avec un tiret pour effectuer un zoom arrière, ou sur les flèches vertes pour les cartes adjacentes.


METAR-TAF: